sensor_id;sensor_type;location;lat;lon;timestamp;temperature;humidity
37158;DHT22;23050;51.776;22.638;2023-09-08T00:01:00;14.90;1.00
37158;DHT22;23050;51.776;22.638;2023-09-08T00:03:25;14.90;1.00
37158;DHT22;23050;51.776;22.638;2023-09-08T00:05:51;14.90;1.00
37158;DHT22;23050;51.776;22.638;2023-09-08T00:08:16;14.80;1.00
37158;DHT22;23050;51.776;22.638;2023-09-08T00:10:42;14.80;1.00
37158;DHT22;23050;51.776;22.638;2023-09-08T00:13:08;14.80;1.00
37158;DHT22;23050;51.776;22.638;2023-09-08T00:15:34;14.70;1.00
37158;DHT22;23050;51.776;22.638;2023-09-08T00:18:01;14.70;1.00
37158;DHT22;23050;51.776;22.638;2023-09-08T00:20:26;14.60;1.00
37158;DHT22;23050;51.776;22.638;2023-09-08T00:22:52;14.70;1.00
37158;DHT22;23050;51.776;22.638;2023-09-08T00:25:17;14.70;4.30
37158;DHT22;23050;51.776;22.638;2023-09-08T00:27:43;14.60;3.90
37158;DHT22;23050;51.776;22.638;2023-09-08T00:30:09;14.60;6.20
37158;DHT22;23050;51.776;22.638;2023-09-08T00:32:35;14.60;7.00
37158;DHT22;23050;51.776;22.638;2023-09-08T00:35:00;14.60;5.30
37158;DHT22;23050;51.776;22.638;2023-09-08T00:37:26;14.60;4.20
37158;DHT22;23050;51.776;22.638;2023-09-08T00:39:52;14.50;6.30
37158;DHT22;23050;51.776;22.638;2023-09-08T00:42:17;14.50;5.40
37158;DHT22;23050;51.776;22.638;2023-09-08T00:44:44;14.50;5.10
37158;DHT22;23050;51.776;22.638;2023-09-08T00:47:10;14.50;6.60
37158;DHT22;23050;51.776;22.638;2023-09-08T00:49:35;14.50;7.90
37158;DHT22;23050;51.776;22.638;2023-09-08T00:52:01;14.50;6.80
37158;DHT22;23050;51.776;22.638;2023-09-08T00:54:27;14.40;6.00
37158;DHT22;23050;51.776;22.638;2023-09-08T00:56:55;14.40;7.00
37158;DHT22;23050;51.776;22.638;2023-09-08T00:59:22;14.40;7.80
37158;DHT22;23050;51.776;22.638;2023-09-08T01:01:48;14.30;9.40
37158;DHT22;23050;51.776;22.638;2023-09-08T01:04:14;14.30;10.80
37158;DHT22;23050;51.776;22.638;2023-09-08T01:06:39;14.20;16.50
37158;DHT22;23050;51.776;22.638;2023-09-08T01:09:05;14.20;18.00
37158;DHT22;23050;51.776;22.638;2023-09-08T01:11:31;14.10;18.40
37158;DHT22;23050;51.776;22.638;2023-09-08T01:13:57;14.10;19.00
37158;DHT22;23050;51.776;22.638;2023-09-08T01:16:23;14.00;25.60
37158;DHT22;23050;51.776;22.638;2023-09-08T01:18:49;14.00;38.40
37158;DHT22;23050;51.776;22.638;2023-09-08T01:27:03;14.10;55.90
37158;DHT22;23050;51.776;22.638;2023-09-08T01:29:30;14.10;52.40
37158;DHT22;23050;51.776;22.638;2023-09-08T01:31:56;14.00;47.10
37158;DHT22;23050;51.776;22.638;2023-09-08T01:34:22;14.00;44.60
37158;DHT22;23050;51.776;22.638;2023-09-08T01:36:48;14.00;42.10
37158;DHT22;23050;51.776;22.638;2023-09-08T01:39:14;13.90;41.80
37158;DHT22;23050;51.776;22.638;2023-09-08T01:41:39;13.90;46.80
37158;DHT22;23050;51.776;22.638;2023-09-08T01:44:05;13.90;45.30
37158;DHT22;23050;51.776;22.638;2023-09-08T01:46:35;13.80;43.30
37158;DHT22;23050;51.776;22.638;2023-09-08T01:49:01;13.70;40.10
37158;DHT22;23050;51.776;22.638;2023-09-08T01:51:26;13.60;39.20
37158;DHT22;23050;51.776;22.638;2023-09-08T01:53:52;13.60;37.40
37158;DHT22;23050;51.776;22.638;2023-09-08T01:56:18;13.50;36.00
37158;DHT22;23050;51.776;22.638;2023-09-08T01:58:43;13.50;35.40
37158;DHT22;23050;51.776;22.638;2023-09-08T02:01:09;13.50;36.60
37158;DHT22;23050;51.776;22.638;2023-09-08T02:03:34;13.40;41.10
37158;DHT22;23050;51.776;22.638;2023-09-08T02:06:00;13.40;57.80
37158;DHT22;23050;51.776;22.638;2023-09-08T02:08:26;13.30;68.00
37158;DHT22;23050;51.776;22.638;2023-09-08T02:10:51;13.30;70.00
37158;DHT22;23050;51.776;22.638;2023-09-08T02:13:17;13.30;69.90
37158;DHT22;23050;51.776;22.638;2023-09-08T02:15:42;13.20;68.90
37158;DHT22;23050;51.776;22.638;2023-09-08T02:18:08;13.20;69.10
37158;DHT22;23050;51.776;22.638;2023-09-08T02:20:34;13.10;78.20
37158;DHT22;23050;51.776;22.638;2023-09-08T02:23:05;13.10;85.60
37158;DHT22;23050;51.776;22.638;2023-09-08T02:25:31;13.10;90.90
37158;DHT22;23050;51.776;22.638;2023-09-08T02:27:57;13.10;94.50
37158;DHT22;23050;51.776;22.638;2023-09-08T02:30:22;13.00;93.30
37158;DHT22;23050;51.776;22.638;2023-09-08T02:32:48;13.00;95.40
37158;DHT22;23050;51.776;22.638;2023-09-08T02:35:15;13.00;99.90
37158;DHT22;23050;51.776;22.638;2023-09-08T02:37:41;13.00;99.90
37158;DHT22;23050;51.776;22.638;2023-09-08T02:40:07;12.90;99.90
37158;DHT22;23050;51.776;22.638;2023-09-08T02:42:33;13.00;99.90
37158;DHT22;23050;51.776;22.638;2023-09-08T02:44:58;12.90;99.90
37158;DHT22;23050;51.776;22.638;2023-09-08T02:47:24;12.90;99.90
37158;DHT22;23050;51.776;22.638;2023-09-08T02:49:49;12.90;99.90
37158;DHT22;23050;51.776;22.638;2023-09-08T02:52:15;12.90;99.90
37158;DHT22;23050;51.776;22.638;2023-09-08T02:54:41;12.80;99.90
37158;DHT22;23050;51.776;22.638;2023-09-08T02:57:07;12.80;99.90
37158;DHT22;23050;51.776;22.638;2023-09-08T02:59:32;12.80;99.90
37158;DHT22;23050;51.776;22.638;2023-09-08T03:01:59;12.70;99.90
37158;DHT22;23050;51.776;22.638;2023-09-08T03:04:25;12.70;99.90
37158;DHT22;23050;51.776;22.638;2023-09-08T03:06:51;12.70;99.90
37158;DHT22;23050;51.776;22.638;2023-09-08T03:09:16;12.70;99.90
37158;DHT22;23050;51.776;22.638;2023-09-08T03:11:42;12.80;99.90
37158;DHT22;23050;51.776;22.638;2023-09-08T03:14:07;12.70;99.90
37158;DHT22;23050;51.776;22.638;2023-09-08T03:16:33;12.80;99.90
37158;DHT22;23050;51.776;22.638;2023-09-08T03:18:59;12.80;99.90
37158;DHT22;23050;51.776;22.638;2023-09-08T03:21:24;12.80;99.90
37158;DHT22;23050;51.776;22.638;2023-09-08T03:23:50;12.80;99.90
37158;DHT22;23050;51.776;22.638;2023-09-08T03:26:15;12.80;99.90
37158;DHT22;23050;51.776;22.638;2023-09-08T03:28:42;12.80;99.90
37158;DHT22;23050;51.776;22.638;2023-09-08T03:31:08;12.80;99.90
37158;DHT22;23050;51.776;22.638;2023-09-08T03:33:33;12.70;99.90
37158;DHT22;23050;51.776;22.638;2023-09-08T03:35:59;12.70;99.90
37158;DHT22;23050;51.776;22.638;2023-09-08T03:38:26;12.70;99.90
37158;DHT22;23050;51.776;22.638;2023-09-08T03:40:51;12.70;99.90
37158;DHT22;23050;51.776;22.638;2023-09-08T03:43:17;12.70;99.90
37158;DHT22;23050;51.776;22.638;2023-09-08T03:45:43;12.70;99.90
37158;DHT22;23050;51.776;22.638;2023-09-08T03:48:09;12.70;99.90
37158;DHT22;23050;51.776;22.638;2023-09-08T03:50:35;12.70;99.90
37158;DHT22;23050;51.776;22.638;2023-09-08T03:53:01;12.70;99.90
37158;DHT22;23050;51.776;22.638;2023-09-08T03:55:26;12.60;99.90
37158;DHT22;23050;51.776;22.638;2023-09-08T03:57:52;12.60;99.90
37158;DHT22;23050;51.776;22.638;2023-09-08T04:00:18;12.60;99.90
37158;DHT22;23050;51.776;22.638;2023-09-08T04:02:48;12.60;99.90
37158;DHT22;23050;51.776;22.638;2023-09-08T04:05:15;12.60;99.90
37158;DHT22;23050;51.776;22.638;2023-09-08T04:07:41;12.60;99.90
37158;DHT22;23050;51.776;22.638;2023-09-08T04:10:07;12.60;99.90
37158;DHT22;23050;51.776;22.638;2023-09-08T04:12:32;12.60;99.90
37158;DHT22;23050;51.776;22.638;2023-09-08T04:14:58;12.60;99.90
37158;DHT22;23050;51.776;22.638;2023-09-08T04:17:24;12.70;99.90
37158;DHT22;23050;51.776;22.638;2023-09-08T04:19:49;12.70;99.90
37158;DHT22;23050;51.776;22.638;2023-09-08T04:22:15;12.80;99.90
37158;DHT22;23050;51.776;22.638;2023-09-08T04:24:40;12.90;99.90
37158;DHT22;23050;51.776;22.638;2023-09-08T04:27:06;13.00;99.90
37158;DHT22;23050;51.776;22.638;2023-09-08T04:29:34;13.00;99.90
37158;DHT22;23050;51.776;22.638;2023-09-08T04:31:59;13.20;99.90
37158;DHT22;23050;51.776;22.638;2023-09-08T04:34:25;13.20;99.90
37158;DHT22;23050;51.776;22.638;2023-09-08T04:36:51;13.40;99.90
37158;DHT22;23050;51.776;22.638;2023-09-08T04:39:16;13.50;99.90
37158;DHT22;23050;51.776;22.638;2023-09-08T04:41:42;13.80;99.90
37158;DHT22;23050;51.776;22.638;2023-09-08T04:44:07;14.20;99.90
37158;DHT22;23050;51.776;22.638;2023-09-08T04:46:34;14.60;99.90
37158;DHT22;23050;51.776;22.638;2023-09-08T04:49:00;15.20;99.10
37158;DHT22;23050;51.776;22.638;2023-09-08T04:51:26;15.70;21.00
37158;DHT22;23050;51.776;22.638;2023-09-08T04:53:51;16.30;1.00
37158;DHT22;23050;51.776;22.638;2023-09-08T04:56:17;16.80;1.00
37158;DHT22;23050;51.776;22.638;2023-09-08T04:58:43;17.30;1.00
37158;DHT22;23050;51.776;22.638;2023-09-08T05:01:08;17.70;1.00
37158;DHT22;23050;51.776;22.638;2023-09-08T05:03:34;18.30;1.00
37158;DHT22;23050;51.776;22.638;2023-09-08T05:05:59;18.70;99.90
37158;DHT22;23050;51.776;22.638;2023-09-08T05:08:26;19.30;99.90
37158;DHT22;23050;51.776;22.638;2023-09-08T05:10:52;19.50;99.90
37158;DHT22;23050;51.776;22.638;2023-09-08T05:13:18;19.90;99.90
37158;DHT22;23050;51.776;22.638;2023-09-08T05:15:43;20.20;99.90
37158;DHT22;23050;51.776;22.638;2023-09-08T05:18:13;20.80;99.90
37158;DHT22;23050;51.776;22.638;2023-09-08T05:20:39;21.30;99.90
37158;DHT22;23050;51.776;22.638;2023-09-08T05:23:05;21.70;99.90
37158;DHT22;23050;51.776;22.638;2023-09-08T05:25:30;22.10;99.90
37158;DHT22;23050;51.776;22.638;2023-09-08T05:27:56;22.70;99.90
37158;DHT22;23050;51.776;22.638;2023-09-08T05:30:22;23.30;99.90
37158;DHT22;23050;51.776;22.638;2023-09-08T05:32:48;23.90;99.90
37158;DHT22;23050;51.776;22.638;2023-09-08T05:35:13;24.30;99.90
37158;DHT22;23050;51.776;22.638;2023-09-08T05:37:39;24.70;99.90
37158;DHT22;23050;51.776;22.638;2023-09-08T05:40:05;25.00;99.90
37158;DHT22;23050;51.776;22.638;2023-09-08T05:42:32;25.00;99.90
37158;DHT22;23050;51.776;22.638;2023-09-08T05:44:58;25.40;99.90
37158;DHT22;23050;51.776;22.638;2023-09-08T05:47:23;26.00;99.90
37158;DHT22;23050;51.776;22.638;2023-09-08T05:49:49;26.30;99.90
37158;DHT22;23050;51.776;22.638;2023-09-08T05:52:14;26.50;99.90
37158;DHT22;23050;51.776;22.638;2023-09-08T05:54:40;26.20;99.90
37158;DHT22;23050;51.776;22.638;2023-09-08T05:57:06;26.50;99.90
37158;DHT22;23050;51.776;22.638;2023-09-08T05:59:31;26.40;99.90
37158;DHT22;23050;51.776;22.638;2023-09-08T06:01:57;27.10;99.10
37158;DHT22;23050;51.776;22.638;2023-09-08T06:04:23;26.90;86.80
37158;DHT22;23050;51.776;22.638;2023-09-08T06:06:48;27.30;70.90
37158;DHT22;23050;51.776;22.638;2023-09-08T06:09:14;27.20;78.20
37158;DHT22;23050;51.776;22.638;2023-09-08T06:11:42;26.90;75.50
37158;DHT22;23050;51.776;22.638;2023-09-08T06:14:07;26.90;99.90
37158;DHT22;23050;51.776;22.638;2023-09-08T06:16:33;27.00;87.90
37158;DHT22;23050;51.776;22.638;2023-09-08T06:18:59;27.10;94.20
37158;DHT22;23050;51.776;22.638;2023-09-08T06:21:25;26.90;84.30
37158;DHT22;23050;51.776;22.638;2023-09-08T06:23:51;27.50;98.70
37158;DHT22;23050;51.776;22.638;2023-09-08T06:26:17;27.10;72.10
37158;DHT22;23050;51.776;22.638;2023-09-08T06:28:42;27.00;96.10
37158;DHT22;23050;51.776;22.638;2023-09-08T06:31:09;27.60;85.60
37158;DHT22;23050;51.776;22.638;2023-09-08T06:33:35;27.60;83.50
37158;DHT22;23050;51.776;22.638;2023-09-08T06:36:01;27.10;73.50
37158;DHT22;23050;51.776;22.638;2023-09-08T06:38:26;26.10;99.90
37158;DHT22;23050;51.776;22.638;2023-09-08T06:40:52;25.80;99.90
37158;DHT22;23050;51.776;22.638;2023-09-08T06:43:19;25.60;99.90
37158;DHT22;23050;51.776;22.638;2023-09-08T06:45:50;26.00;99.90
37158;DHT22;23050;51.776;22.638;2023-09-08T06:48:16;26.30;99.90
37158;DHT22;23050;51.776;22.638;2023-09-08T06:50:42;26.40;99.90
37158;DHT22;23050;51.776;22.638;2023-09-08T06:53:07;26.80;99.10
37158;DHT22;23050;51.776;22.638;2023-09-08T06:55:33;28.30;92.60
37158;DHT22;23050;51.776;22.638;2023-09-08T06:57:59;28.30;59.30
37158;DHT22;23050;51.776;22.638;2023-09-08T07:00:24;28.40;57.50
37158;DHT22;23050;51.776;22.638;2023-09-08T07:02:50;28.10;66.00
37158;DHT22;23050;51.776;22.638;2023-09-08T07:05:16;29.10;45.00
37158;DHT22;23050;51.776;22.638;2023-09-08T07:07:42;29.60;39.80
37158;DHT22;23050;51.776;22.638;2023-09-08T07:10:08;30.10;18.50
37158;DHT22;23050;51.776;22.638;2023-09-08T07:12:34;30.50;8.70
37158;DHT22;23050;51.776;22.638;2023-09-08T07:15:00;29.70;15.10
37158;DHT22;23050;51.776;22.638;2023-09-08T07:17:25;28.90;27.40
37158;DHT22;23050;51.776;22.638;2023-09-08T07:19:51;29.10;52.70
37158;DHT22;23050;51.776;22.638;2023-09-08T07:22:17;29.70;41.40
37158;DHT22;23050;51.776;22.638;2023-09-08T07:24:43;29.80;17.80
37158;DHT22;23050;51.776;22.638;2023-09-08T07:27:09;30.10;28.90
37158;DHT22;23050;51.776;22.638;2023-09-08T07:29:35;31.30;8.80
37158;DHT22;23050;51.776;22.638;2023-09-08T07:32:01;31.90;1.00
37158;DHT22;23050;51.776;22.638;2023-09-08T07:34:26;30.90;1.00
37158;DHT22;23050;51.776;22.638;2023-09-08T07:36:52;30.30;6.00
37158;DHT22;23050;51.776;22.638;2023-09-08T07:39:18;30.30;11.70
37158;DHT22;23050;51.776;22.638;2023-09-08T07:41:43;32.00;1.70
37158;DHT22;23050;51.776;22.638;2023-09-08T07:44:09;32.80;1.00
37158;DHT22;23050;51.776;22.638;2023-09-08T07:46:35;32.60;1.00
37158;DHT22;23050;51.776;22.638;2023-09-08T07:49:01;33.40;1.00
37158;DHT22;23050;51.776;22.638;2023-09-08T07:51:26;34.40;1.00
37158;DHT22;23050;51.776;22.638;2023-09-08T07:53:55;35.40;1.00
37158;DHT22;23050;51.776;22.638;2023-09-08T07:56:21;35.20;1.00
37158;DHT22;23050;51.776;22.638;2023-09-08T07:58:47;34.40;1.00
37158;DHT22;23050;51.776;22.638;2023-09-08T08:01:13;33.40;1.00
37158;DHT22;23050;51.776;22.638;2023-09-08T08:03:40;32.70;1.00
37158;DHT22;23050;51.776;22.638;2023-09-08T08:06:06;32.40;1.00
37158;DHT22;23050;51.776;22.638;2023-09-08T08:08:32;31.80;1.00
37158;DHT22;23050;51.776;22.638;2023-09-08T08:10:59;32.70;1.00
37158;DHT22;23050;51.776;22.638;2023-09-08T08:13:24;33.40;1.00
37158;DHT22;23050;51.776;22.638;2023-09-08T08:15:50;34.00;1.00
37158;DHT22;23050;51.776;22.638;2023-09-08T08:18:16;34.40;1.00
37158;DHT22;23050;51.776;22.638;2023-09-08T08:20:41;34.30;1.00
37158;DHT22;23050;51.776;22.638;2023-09-08T08:23:07;34.90;1.00
37158;DHT22;23050;51.776;22.638;2023-09-08T08:25:34;35.80;1.00
37158;DHT22;23050;51.776;22.638;2023-09-08T08:28:00;35.30;1.00
37158;DHT22;23050;51.776;22.638;2023-09-08T08:30:26;36.30;1.00
37158;DHT22;23050;51.776;22.638;2023-09-08T08:32:52;36.80;1.00
37158;DHT22;23050;51.776;22.638;2023-09-08T08:35:21;38.00;1.00
37158;DHT22;23050;51.776;22.638;2023-09-08T08:37:47;38.50;1.00
37158;DHT22;23050;51.776;22.638;2023-09-08T08:40:13;36.60;1.00
37158;DHT22;23050;51.776;22.638;2023-09-08T08:42:40;36.30;1.00
37158;DHT22;23050;51.776;22.638;2023-09-08T08:45:06;36.70;1.00
37158;DHT22;23050;51.776;22.638;2023-09-08T08:47:32;36.30;1.00
37158;DHT22;23050;51.776;22.638;2023-09-08T08:50:00;36.90;1.00
37158;DHT22;23050;51.776;22.638;2023-09-08T08:52:29;37.60;1.00
37158;DHT22;23050;51.776;22.638;2023-09-08T08:54:55;37.90;1.00
37158;DHT22;23050;51.776;22.638;2023-09-08T08:57:24;35.80;1.00
37158;DHT22;23050;51.776;22.638;2023-09-08T08:59:53;35.60;1.00
37158;DHT22;23050;51.776;22.638;2023-09-08T09:02:19;34.80;1.00
37158;DHT22;23050;51.776;22.638;2023-09-08T09:04:45;35.20;1.00
37158;DHT22;23050;51.776;22.638;2023-09-08T09:07:11;35.30;1.00
37158;DHT22;23050;51.776;22.638;2023-09-08T09:09:37;36.20;1.00
37158;DHT22;23050;51.776;22.638;2023-09-08T09:12:05;36.50;1.00
37158;DHT22;23050;51.776;22.638;2023-09-08T09:14:34;35.80;1.00
37158;DHT22;23050;51.776;22.638;2023-09-08T09:17:01;34.00;1.00
37158;DHT22;23050;51.776;22.638;2023-09-08T09:19:27;32.50;1.00
37158;DHT22;23050;51.776;22.638;2023-09-08T09:21:55;32.20;1.00
37158;DHT22;23050;51.776;22.638;2023-09-08T09:24:31;32.20;1.00
37158;DHT22;23050;51.776;22.638;2023-09-08T09:26:58;32.50;1.00
37158;DHT22;23050;51.776;22.638;2023-09-08T09:29:24;33.20;1.00
37158;DHT22;23050;51.776;22.638;2023-09-08T09:31:51;33.60;1.00
37158;DHT22;23050;51.776;22.638;2023-09-08T09:34:18;32.60;1.00
37158;DHT22;23050;51.776;22.638;2023-09-08T09:36:44;32.20;1.00
37158;DHT22;23050;51.776;22.638;2023-09-08T09:39:12;32.40;1.00
37158;DHT22;23050;51.776;22.638;2023-09-08T09:41:40;32.40;1.00
37158;DHT22;23050;51.776;22.638;2023-09-08T09:44:06;32.60;1.00
37158;DHT22;23050;51.776;22.638;2023-09-08T09:46:33;33.40;1.00
37158;DHT22;23050;51.776;22.638;2023-09-08T09:48:59;34.50;1.00
37158;DHT22;23050;51.776;22.638;2023-09-08T09:51:24;34.30;1.00
37158;DHT22;23050;51.776;22.638;2023-09-08T09:53:50;33.30;1.00
37158;DHT22;23050;51.776;22.638;2023-09-08T09:56:20;33.20;1.00
37158;DHT22;23050;51.776;22.638;2023-09-08T09:58:48;33.70;1.00
37158;DHT22;23050;51.776;22.638;2023-09-08T10:01:15;34.30;1.00
37158;DHT22;23050;51.776;22.638;2023-09-08T10:03:42;35.10;1.00
37158;DHT22;23050;51.776;22.638;2023-09-08T10:06:11;35.00;1.00
37158;DHT22;23050;51.776;22.638;2023-09-08T10:08:38;35.80;1.00
37158;DHT22;23050;51.776;22.638;2023-09-08T10:11:07;36.00;1.00
37158;DHT22;23050;51.776;22.638;2023-09-08T10:13:39;35.70;1.00
37158;DHT22;23050;51.776;22.638;2023-09-08T10:16:13;35.40;1.00
37158;DHT22;23050;51.776;22.638;2023-09-08T10:18:44;36.10;1.00
37158;DHT22;23050;51.776;22.638;2023-09-08T10:21:13;37.00;1.00
37158;DHT22;23050;51.776;22.638;2023-09-08T10:23:47;36.30;1.00
37158;DHT22;23050;51.776;22.638;2023-09-08T10:26:17;37.00;1.00
37158;DHT22;23050;51.776;22.638;2023-09-08T10:28:44;37.10;1.00
37158;DHT22;23050;51.776;22.638;2023-09-08T10:31:10;36.60;1.00
37158;DHT22;23050;51.776;22.638;2023-09-08T10:33:36;36.50;1.00
37158;DHT22;23050;51.776;22.638;2023-09-08T10:36:03;35.60;1.00
37158;DHT22;23050;51.776;22.638;2023-09-08T10:38:34;35.70;1.00
37158;DHT22;23050;51.776;22.638;2023-09-08T10:46:11;34.90;1.00
37158;DHT22;23050;51.776;22.638;2023-09-08T10:48:46;34.40;1.00
37158;DHT22;23050;51.776;22.638;2023-09-08T10:51:18;33.90;1.00
37158;DHT22;23050;51.776;22.638;2023-09-08T10:53:46;32.80;1.00
37158;DHT22;23050;51.776;22.638;2023-09-08T10:56:13;33.10;1.00
37158;DHT22;23050;51.776;22.638;2023-09-08T10:58:39;33.40;1.00
37158;DHT22;23050;51.776;22.638;2023-09-08T11:01:13;33.60;1.00
37158;DHT22;23050;51.776;22.638;2023-09-08T11:06:06;34.10;1.00
37158;DHT22;23050;51.776;22.638;2023-09-08T11:08:33;34.20;1.00
37158;DHT22;23050;51.776;22.638;2023-09-08T11:11:02;34.30;1.00
37158;DHT22;23050;51.776;22.638;2023-09-08T11:13:28;34.40;1.00
37158;DHT22;23050;51.776;22.638;2023-09-08T11:15:54;33.90;1.00
37158;DHT22;23050;51.776;22.638;2023-09-08T11:18:29;33.70;1.00
37158;DHT22;23050;51.776;22.638;2023-09-08T11:20:59;33.60;1.00
37158;DHT22;23050;51.776;22.638;2023-09-08T11:23:28;33.40;1.00
37158;DHT22;23050;51.776;22.638;2023-09-08T11:25:57;33.50;1.00
37158;DHT22;23050;51.776;22.638;2023-09-08T11:28:25;33.90;1.00
37158;DHT22;23050;51.776;22.638;2023-09-08T11:30:52;34.10;1.00
37158;DHT22;23050;51.776;22.638;2023-09-08T11:33:22;33.20;1.00
37158;DHT22;23050;51.776;22.638;2023-09-08T11:35:52;32.90;1.00
37158;DHT22;23050;51.776;22.638;2023-09-08T11:38:25;33.20;1.00
37158;DHT22;23050;51.776;22.638;2023-09-08T11:40:56;33.70;1.00
37158;DHT22;23050;51.776;22.638;2023-09-08T11:43:23;33.70;1.00
37158;DHT22;23050;51.776;22.638;2023-09-08T11:45:49;33.70;1.00
37158;DHT22;23050;51.776;22.638;2023-09-08T11:48:15;33.50;1.00
37158;DHT22;23050;51.776;22.638;2023-09-08T11:50:42;33.10;1.00
37158;DHT22;23050;51.776;22.638;2023-09-08T11:53:09;33.20;1.00
37158;DHT22;23050;51.776;22.638;2023-09-08T11:55:35;33.20;1.00
37158;DHT22;23050;51.776;22.638;2023-09-08T11:58:02;32.80;1.00
37158;DHT22;23050;51.776;22.638;2023-09-08T12:00:34;32.90;1.00
37158;DHT22;23050;51.776;22.638;2023-09-08T12:03:13;33.00;1.00
37158;DHT22;23050;51.776;22.638;2023-09-08T12:05:40;32.40;1.00
37158;DHT22;23050;51.776;22.638;2023-09-08T12:08:08;32.50;1.00
37158;DHT22;23050;51.776;22.638;2023-09-08T12:10:41;32.90;1.00
37158;DHT22;23050;51.776;22.638;2023-09-08T12:13:07;33.40;1.00
37158;DHT22;23050;51.776;22.638;2023-09-08T12:15:41;33.80;1.00
37158;DHT22;23050;51.776;22.638;2023-09-08T12:18:12;33.50;1.00
37158;DHT22;23050;51.776;22.638;2023-09-08T12:20:41;33.60;1.00
37158;DHT22;23050;51.776;22.638;2023-09-08T12:23:18;33.70;1.00
37158;DHT22;23050;51.776;22.638;2023-09-08T12:25:48;33.70;1.00
37158;DHT22;23050;51.776;22.638;2023-09-08T12:28:17;33.20;1.00
37158;DHT22;23050;51.776;22.638;2023-09-08T12:30:42;33.00;1.00
37158;DHT22;23050;51.776;22.638;2023-09-08T12:33:08;32.80;1.00
37158;DHT22;23050;51.776;22.638;2023-09-08T12:35:35;33.20;1.00
37158;DHT22;23050;51.776;22.638;2023-09-08T12:38:05;33.60;1.00
37158;DHT22;23050;51.776;22.638;2023-09-08T12:40:34;33.20;1.00
37158;DHT22;23050;51.776;22.638;2023-09-08T12:43:00;32.90;1.00
37158;DHT22;23050;51.776;22.638;2023-09-08T12:45:26;33.00;1.00
37158;DHT22;23050;51.776;22.638;2023-09-08T12:47:53;32.90;1.00
37158;DHT22;23050;51.776;22.638;2023-09-08T12:50:20;33.30;1.00
37158;DHT22;23050;51.776;22.638;2023-09-08T12:52:46;33.50;1.00
37158;DHT22;23050;51.776;22.638;2023-09-08T12:55:12;33.30;1.00
37158;DHT22;23050;51.776;22.638;2023-09-08T12:57:38;33.20;1.00
37158;DHT22;23050;51.776;22.638;2023-09-08T13:00:04;33.60;1.00
37158;DHT22;23050;51.776;22.638;2023-09-08T13:02:36;33.70;1.00
37158;DHT22;23050;51.776;22.638;2023-09-08T13:05:02;34.10;1.00
37158;DHT22;23050;51.776;22.638;2023-09-08T13:07:28;33.90;1.00
37158;DHT22;23050;51.776;22.638;2023-09-08T13:09:54;33.70;1.00
37158;DHT22;23050;51.776;22.638;2023-09-08T13:12:23;33.80;1.00
37158;DHT22;23050;51.776;22.638;2023-09-08T13:14:52;34.20;1.00
37158;DHT22;23050;51.776;22.638;2023-09-08T13:17:17;34.30;1.00
37158;DHT22;23050;51.776;22.638;2023-09-08T13:19:47;34.20;1.00
37158;DHT22;23050;51.776;22.638;2023-09-08T13:22:13;34.20;1.00
37158;DHT22;23050;51.776;22.638;2023-09-08T13:24:39;34.40;1.00
37158;DHT22;23050;51.776;22.638;2023-09-08T13:27:07;34.80;1.00
37158;DHT22;23050;51.776;22.638;2023-09-08T13:29:33;34.60;1.00
37158;DHT22;23050;51.776;22.638;2023-09-08T13:31:59;34.00;1.00
37158;DHT22;23050;51.776;22.638;2023-09-08T13:34:25;32.30;1.00
37158;DHT22;23050;51.776;22.638;2023-09-08T13:36:50;31.90;1.00
37158;DHT22;23050;51.776;22.638;2023-09-08T13:39:18;32.00;1.00
37158;DHT22;23050;51.776;22.638;2023-09-08T13:41:55;32.70;1.00
37158;DHT22;23050;51.776;22.638;2023-09-08T13:44:23;33.10;1.00
37158;DHT22;23050;51.776;22.638;2023-09-08T13:46:50;34.00;1.00
37158;DHT22;23050;51.776;22.638;2023-09-08T13:49:16;34.50;1.00
37158;DHT22;23050;51.776;22.638;2023-09-08T13:51:48;34.50;1.00
37158;DHT22;23050;51.776;22.638;2023-09-08T13:54:18;34.10;1.00
37158;DHT22;23050;51.776;22.638;2023-09-08T13:56:44;34.40;1.00
37158;DHT22;23050;51.776;22.638;2023-09-08T13:59:10;34.60;1.00
37158;DHT22;23050;51.776;22.638;2023-09-08T14:01:37;34.90;1.00
37158;DHT22;23050;51.776;22.638;2023-09-08T14:04:06;35.10;1.00
37158;DHT22;23050;51.776;22.638;2023-09-08T14:06:37;34.90;1.00
37158;DHT22;23050;51.776;22.638;2023-09-08T14:09:03;34.20;1.00
37158;DHT22;23050;51.776;22.638;2023-09-08T14:11:29;34.50;1.00
37158;DHT22;23050;51.776;22.638;2023-09-08T14:13:55;33.60;1.00
37158;DHT22;23050;51.776;22.638;2023-09-08T14:16:21;33.50;1.00
37158;DHT22;23050;51.776;22.638;2023-09-08T14:18:46;33.40;1.00
37158;DHT22;23050;51.776;22.638;2023-09-08T14:21:12;33.90;1.00
37158;DHT22;23050;51.776;22.638;2023-09-08T14:23:40;33.70;1.00
37158;DHT22;23050;51.776;22.638;2023-09-08T14:26:07;34.20;1.00
37158;DHT22;23050;51.776;22.638;2023-09-08T14:28:33;34.10;1.00
37158;DHT22;23050;51.776;22.638;2023-09-08T14:31:04;33.80;1.00
37158;DHT22;23050;51.776;22.638;2023-09-08T14:33:30;34.00;1.00
37158;DHT22;23050;51.776;22.638;2023-09-08T14:35:56;33.80;1.00
37158;DHT22;23050;51.776;22.638;2023-09-08T14:38:23;33.90;1.00
37158;DHT22;23050;51.776;22.638;2023-09-08T14:41:02;34.10;1.00
37158;DHT22;23050;51.776;22.638;2023-09-08T14:43:29;34.20;1.00
37158;DHT22;23050;51.776;22.638;2023-09-08T14:45:57;34.50;1.00
37158;DHT22;23050;51.776;22.638;2023-09-08T14:48:23;34.50;1.00
37158;DHT22;23050;51.776;22.638;2023-09-08T14:50:50;34.70;1.00
37158;DHT22;23050;51.776;22.638;2023-09-08T14:53:18;34.40;1.00
37158;DHT22;23050;51.776;22.638;2023-09-08T14:55:44;34.20;1.00
37158;DHT22;23050;51.776;22.638;2023-09-08T14:58:11;34.30;1.00
37158;DHT22;23050;51.776;22.638;2023-09-08T15:00:40;34.40;1.00
37158;DHT22;23050;51.776;22.638;2023-09-08T15:03:06;34.10;1.00
37158;DHT22;23050;51.776;22.638;2023-09-08T15:05:35;33.70;1.00
37158;DHT22;23050;51.776;22.638;2023-09-08T15:08:01;33.40;1.00
37158;DHT22;23050;51.776;22.638;2023-09-08T15:10:27;33.10;1.00
37158;DHT22;23050;51.776;22.638;2023-09-08T15:12:53;32.90;1.00
37158;DHT22;23050;51.776;22.638;2023-09-08T15:15:19;32.50;1.00
37158;DHT22;23050;51.776;22.638;2023-09-08T15:17:51;32.20;1.00
37158;DHT22;23050;51.776;22.638;2023-09-08T15:20:19;32.70;1.00
37158;DHT22;23050;51.776;22.638;2023-09-08T15:22:45;32.80;1.00
37158;DHT22;23050;51.776;22.638;2023-09-08T15:25:11;32.40;1.00
37158;DHT22;23050;51.776;22.638;2023-09-08T15:27:37;32.10;1.00
37158;DHT22;23050;51.776;22.638;2023-09-08T15:30:03;32.20;1.00
37158;DHT22;23050;51.776;22.638;2023-09-08T15:32:29;32.10;1.00
37158;DHT22;23050;51.776;22.638;2023-09-08T15:34:54;32.00;1.00